createdAt,value
2023-06-23T00:00:14.369Z,22.15
2023-06-23T00:05:41.145Z,22.14
2023-06-23T00:10:49.349Z,22.13
2023-06-23T00:15:58.753Z,22.10
2023-06-23T00:21:06.905Z,22.06
2023-06-23T00:26:14.592Z,22.02
2023-06-23T00:31:21.579Z,22.01
2023-06-23T00:36:31.815Z,21.98
2023-06-23T00:41:40.666Z,21.92
2023-06-23T00:46:48.475Z,21.81
2023-06-23T00:51:55.623Z,21.68
2023-06-23T00:57:02.474Z,21.55
2023-06-23T01:02:09.408Z,21.41
2023-06-23T01:07:27.363Z,21.28
2023-06-23T01:12:40.950Z,21.18
2023-06-23T01:17:52.928Z,21.09
2023-06-23T01:23:17.905Z,21.03
2023-06-23T01:28:44.503Z,20.98
2023-06-23T01:33:58.190Z,20.93
2023-06-23T01:39:07.717Z,20.89
2023-06-23T01:44:18.794Z,20.84
2023-06-23T01:49:29.828Z,20.80
2023-06-23T01:54:39.826Z,20.77
2023-06-23T01:59:51.696Z,20.81
2023-06-23T02:05:01.437Z,20.87
2023-06-23T02:10:10.540Z,20.85
2023-06-23T02:15:22.315Z,18.71
2023-06-23T02:20:31.507Z,17.91
2023-06-23T02:25:40.766Z,-11.73
2023-06-23T02:30:48.513Z,18.17
2023-06-23T02:35:59.339Z,-69.49
2023-06-23T02:41:11.118Z,-128.00
2023-06-23T02:46:22.308Z,-128.00
2023-06-23T02:51:30.867Z,-128.00
2023-06-23T02:56:44.594Z,-128.00
2023-06-23T03:01:54.679Z,-128.00
2023-06-23T03:07:01.896Z,-128.00
2023-06-23T03:12:12.026Z,-128.00
2023-06-23T03:17:24.476Z,-128.00
2023-06-23T03:22:40.156Z,-128.00
2023-06-23T03:27:50.278Z,-128.00
2023-06-23T03:33:03.425Z,-128.00
2023-06-23T03:38:16.761Z,-128.00
2023-06-23T03:43:30.482Z,-128.00
2023-06-23T03:48:41.208Z,-128.00
2023-06-23T03:53:49.712Z,-128.00
2023-06-23T03:58:58.134Z,-128.00
2023-06-23T04:04:07.990Z,-98.75
2023-06-23T04:09:17.242Z,18.21
2023-06-23T04:14:26.740Z,18.18
2023-06-23T04:19:35.775Z,18.14
2023-06-23T04:24:43.785Z,18.13
2023-06-23T04:29:53.178Z,18.13
2023-06-23T04:35:00.060Z,18.19
2023-06-23T04:40:23.597Z,18.23
2023-06-23T04:45:33.038Z,18.19
2023-06-23T04:50:42.864Z,18.22
2023-06-23T04:55:55.462Z,18.26
2023-06-23T05:01:04.785Z,18.27
2023-06-23T05:06:13.727Z,18.29
2023-06-23T05:11:22.819Z,18.29
2023-06-23T05:16:30.484Z,18.29
2023-06-23T05:21:38.864Z,18.28
2023-06-23T05:26:47.335Z,18.30
2023-06-23T05:31:55.242Z,18.35
2023-06-23T05:37:04.438Z,-10.88
2023-06-23T05:42:11.674Z,-128.00
2023-06-23T05:47:23.938Z,-128.00
2023-06-23T05:52:35.811Z,-128.00
2023-06-23T05:57:44.878Z,-128.00
2023-06-23T06:02:54.723Z,-128.00
2023-06-23T06:08:02.983Z,-128.00
2023-06-23T06:13:12.536Z,-128.00
2023-06-23T06:18:21.092Z,-128.00
2023-06-23T06:23:28.309Z,-128.00
2023-06-23T06:28:37.060Z,-128.00
2023-06-23T06:33:46.467Z,-128.00
2023-06-23T06:38:55.429Z,-128.00
2023-06-23T06:44:04.111Z,-128.00
2023-06-23T06:49:12.998Z,-128.00
2023-06-23T06:54:20.933Z,-128.00
2023-06-23T06:59:27.973Z,-128.00
2023-06-23T07:04:35.742Z,-128.00
2023-06-23T07:09:42.745Z,-128.00
2023-06-23T07:14:50.319Z,-128.00
2023-06-23T07:19:57.357Z,-128.00
2023-06-23T07:25:04.321Z,-128.00
2023-06-23T07:30:12.719Z,-128.00
2023-06-23T07:35:19.847Z,-128.00
2023-06-23T07:40:26.689Z,-128.00
2023-06-23T07:45:33.709Z,-128.00
2023-06-23T07:50:40.488Z,-128.00
2023-06-23T07:55:47.408Z,-128.00
2023-06-23T08:00:55.212Z,-128.00
2023-06-23T08:06:02.194Z,-128.00
2023-06-23T08:11:09.208Z,-128.00
2023-06-23T08:16:16.134Z,-128.00
2023-06-23T08:21:23.311Z,-128.00
2023-06-23T08:26:30.404Z,-128.00
2023-06-23T08:31:37.385Z,-128.00
2023-06-23T08:36:44.286Z,-128.00
2023-06-23T08:41:52.529Z,-128.00
2023-06-23T08:47:06.390Z,-128.00
2023-06-23T08:52:15.533Z,-128.00
2023-06-23T08:57:22.926Z,-128.00
2023-06-23T09:02:29.854Z,-128.00
2023-06-23T09:07:37.049Z,-128.00
2023-06-23T09:13:02.314Z,-128.00
2023-06-23T09:18:14.548Z,-128.00
2023-06-23T09:23:22.875Z,-128.00
2023-06-23T09:28:31.384Z,-128.00
2023-06-23T09:33:46.751Z,-128.00
2023-06-23T09:38:54.071Z,-128.00
2023-06-23T09:44:01.061Z,-128.00
2023-06-23T09:49:10.534Z,-128.00
2023-06-23T09:54:16.447Z,-128.00
2023-06-23T09:59:24.315Z,-128.00
2023-06-23T10:04:34.416Z,-128.00
2023-06-23T10:09:53.223Z,-128.00
2023-06-23T10:15:04.347Z,-128.00
2023-06-23T10:20:13.790Z,-128.00
2023-06-23T10:25:20.992Z,-128.00
2023-06-23T10:30:31.414Z,-128.00
2023-06-23T10:35:40.857Z,-128.00
2023-06-23T10:40:53.256Z,-128.00
2023-06-23T10:46:01.244Z,-128.00
2023-06-23T10:51:08.694Z,-128.00
2023-06-23T10:56:33.659Z,-128.00
2023-06-23T11:07:13.833Z,26.83
2023-06-23T11:12:34.754Z,26.77
2023-06-23T11:17:46.777Z,26.81
2023-06-23T11:23:00.415Z,26.57
2023-06-23T11:28:29.854Z,26.51
2023-06-23T11:33:39.009Z,26.43
2023-06-23T11:38:46.992Z,26.39
2023-06-23T11:43:57.890Z,26.48
2023-06-23T11:49:13.572Z,26.87
2023-06-23T11:54:22.759Z,27.38
2023-06-23T11:59:35.820Z,27.59
2023-06-23T12:04:44.720Z,27.48
2023-06-23T12:09:57.688Z,27.22
2023-06-23T12:15:04.922Z,26.95
2023-06-23T12:20:17.563Z,27.19
2023-06-23T12:25:31.936Z,27.87
2023-06-23T12:30:44.412Z,28.93
2023-06-23T12:36:01.767Z,29.31
2023-06-23T12:41:25.193Z,29.58
2023-06-23T12:46:33.404Z,29.51
2023-06-23T12:51:41.242Z,29.19
2023-06-23T12:56:48.269Z,29.11
2023-06-23T13:01:55.193Z,29.08
2023-06-23T13:07:02.114Z,29.05
2023-06-23T13:12:10.133Z,28.98
2023-06-23T13:17:16.994Z,28.88
2023-06-23T13:22:23.966Z,28.48
2023-06-23T13:27:32.688Z,28.13
2023-06-23T13:32:39.499Z,27.94
2023-06-23T13:37:46.467Z,27.71
2023-06-23T13:42:53.527Z,27.52
2023-06-23T13:48:00.549Z,27.05
2023-06-23T13:53:07.452Z,26.59
2023-06-23T13:58:14.343Z,26.74
2023-06-23T14:03:21.326Z,27.40
2023-06-23T14:08:28.476Z,27.63
2023-06-23T14:13:35.337Z,27.59
2023-06-23T14:18:42.383Z,27.43
2023-06-23T14:23:49.511Z,27.32
2023-06-23T14:28:56.421Z,27.31
2023-06-23T14:34:05.150Z,27.91
2023-06-23T14:39:13.047Z,28.82
2023-06-23T14:44:19.978Z,30.37
2023-06-23T14:49:27.032Z,30.80
2023-06-23T14:54:33.973Z,30.12
2023-06-23T14:59:40.883Z,29.41
2023-06-23T15:04:47.759Z,28.14
2023-06-23T15:09:55.024Z,24.09
2023-06-23T15:15:02.599Z,21.21
2023-06-23T15:20:11.488Z,20.20
2023-06-23T15:25:18.637Z,19.96
2023-06-23T15:30:25.693Z,19.97
2023-06-23T15:35:32.929Z,19.95
2023-06-23T15:40:41.379Z,19.82
2023-06-23T15:45:48.693Z,19.82
2023-06-23T15:50:56.418Z,19.86
2023-06-23T15:56:04.733Z,19.88
2023-06-23T16:01:11.984Z,20.01
2023-06-23T16:06:19.012Z,20.15
2023-06-23T16:11:26.453Z,20.21
2023-06-23T16:16:33.536Z,20.39
2023-06-23T16:21:41.715Z,20.55
2023-06-23T16:26:48.616Z,21.11
2023-06-23T16:31:55.508Z,21.45
2023-06-23T16:37:02.547Z,21.36
2023-06-23T16:42:10.757Z,21.63
2023-06-23T16:47:17.761Z,21.83
2023-06-23T16:52:24.894Z,21.62
2023-06-23T16:57:32.256Z,21.75
2023-06-23T17:02:39.234Z,21.68
2023-06-23T17:07:46.542Z,21.27
2023-06-23T17:12:53.782Z,21.17
2023-06-23T17:18:00.796Z,21.16
2023-06-23T17:23:08.193Z,21.44
2023-06-23T17:28:15.258Z,21.84
2023-06-23T17:33:22.534Z,22.10
2023-06-23T17:38:30.636Z,21.84
2023-06-23T17:43:37.773Z,21.45
2023-06-23T17:48:45.314Z,21.29
2023-06-23T17:53:52.586Z,21.08
2023-06-23T17:59:00.079Z,20.90
2023-06-23T18:04:07.607Z,20.76
2023-06-23T18:09:14.843Z,20.63
2023-06-23T18:14:22.229Z,20.52
2023-06-23T18:19:29.085Z,20.45
2023-06-23T18:24:36.008Z,20.42
2023-06-23T18:29:42.933Z,20.34
2023-06-23T18:34:50.055Z,20.26
2023-06-23T18:39:58.083Z,20.19
2023-06-23T18:45:05.532Z,20.08
2023-06-23T18:50:13.515Z,20.03
2023-06-23T18:55:20.453Z,20.01
2023-06-23T19:00:28.672Z,19.98
2023-06-23T19:05:37.376Z,19.83
2023-06-23T19:10:45.097Z,19.66
2023-06-23T19:15:52.237Z,19.53
2023-06-23T19:20:59.256Z,19.42
2023-06-23T19:26:06.434Z,19.36
2023-06-23T19:31:13.456Z,19.25
2023-06-23T19:36:20.403Z,19.15
2023-06-23T19:41:27.261Z,19.06
2023-06-23T19:46:34.081Z,19.02
2023-06-23T19:51:41.113Z,19.01
2023-06-23T19:56:51.483Z,19.01
2023-06-23T20:01:59.037Z,19.05
2023-06-23T20:07:07.487Z,19.05
2023-06-23T20:12:14.654Z,19.02
2023-06-23T20:17:21.754Z,19.00
2023-06-23T20:22:28.749Z,18.99
2023-06-23T20:27:35.735Z,19.00
2023-06-23T20:32:42.728Z,19.01
2023-06-23T20:37:49.778Z,19.02
2023-06-23T20:42:56.910Z,19.03
2023-06-23T20:49:00.011Z,19.02
2023-06-23T20:54:07.010Z,19.04
2023-06-23T20:59:14.022Z,19.05
2023-06-23T21:04:21.776Z,19.03
2023-06-23T21:09:29.402Z,19.03
2023-06-23T21:14:36.294Z,19.04
2023-06-23T21:19:43.331Z,19.04
2023-06-23T21:24:50.207Z,19.03
2023-06-23T21:29:57.122Z,19.01
2023-06-23T21:35:04.038Z,18.98
2023-06-23T21:40:15.883Z,18.95
2023-06-23T21:45:24.905Z,18.92
2023-06-23T21:50:32.262Z,18.89
2023-06-23T21:55:39.563Z,18.85
2023-06-23T22:00:46.500Z,18.84
2023-06-23T22:05:53.412Z,18.83
2023-06-23T22:11:00.743Z,18.81
2023-06-23T22:16:08.128Z,18.79
2023-06-23T22:21:15.096Z,18.78
2023-06-23T22:26:22.108Z,18.78
2023-06-23T22:31:29.772Z,18.77
2023-06-23T22:36:37.325Z,18.75
2023-06-23T22:41:44.364Z,18.72
2023-06-23T22:46:51.728Z,18.69
2023-06-23T22:51:58.709Z,18.67
2023-06-23T22:57:05.852Z,18.64
2023-06-23T23:02:12.925Z,18.61
2023-06-23T23:07:20.082Z,18.58
2023-06-23T23:12:27.174Z,18.55
2023-06-23T23:17:34.345Z,18.53
2023-06-23T23:22:41.566Z,18.49
2023-06-23T23:27:51.947Z,18.44
2023-06-23T23:32:57.465Z,18.37
2023-06-23T23:38:04.280Z,18.31
2023-06-23T23:43:11.257Z,18.24
2023-06-23T23:48:18.590Z,18.20
2023-06-23T23:53:25.597Z,18.16
2023-06-23T23:58:32.449Z,18.13
